Time;durP1;ratioP1;P1;durP2;ratioP2;P2;SDS_P1;SDS_P2;PMS_P1;PMS_P2;Temp;Humidity;BMP_temperature;BMP_pressure;BME280_temperature;BME280_humidity;BME280_pressure;Samples;Min_cycle;Max_cycle;Signal;HPM_P1;HPM_P2
2023/08/15 00:00:19;;;;;;;10.35;7.20;;;20.50;99.90;;;;;;5055800;28;20175;-85
2023/08/15 00:02:45;;;;;;;10.05;7.35;;;20.50;99.90;;;;;;5055651;28;20198;-87
2023/08/15 00:05:10;;;;;;;12.20;7.25;;;20.40;99.90;;;;;;5039067;28;20588;-86
2023/08/15 00:07:36;;;;;;;11.25;7.70;;;20.40;99.90;;;;;;5055730;28;20199;-86
2023/08/15 00:10:02;;;;;;;11.55;7.43;;;20.40;99.90;;;;;;5022557;28;20179;-86
2023/08/15 00:12:28;;;;;;;14.88;7.13;;;20.30;99.90;;;;;;5055442;28;20202;-86
2023/08/15 00:14:53;;;;;;;15.48;7.82;;;20.30;99.90;;;;;;5055440;28;20692;-86
2023/08/15 00:17:19;;;;;;;11.45;7.40;;;20.20;99.90;;;;;;5055684;28;20227;-86
2023/08/15 00:19:45;;;;;;;10.43;6.60;;;20.30;99.90;;;;;;5074043;28;20534;-86
2023/08/15 00:22:10;;;;;;;13.65;7.05;;;20.20;99.90;;;;;;5055537;28;20546;-86
2023/08/15 00:24:36;;;;;;;9.38;6.88;;;20.20;99.90;;;;;;5055582;28;20183;-86
2023/08/15 00:27:01;;;;;;;10.95;7.63;;;20.20;99.90;;;;;;5073436;28;20183;-86
2023/08/15 00:29:27;;;;;;;10.38;7.55;;;20.20;99.90;;;;;;5038712;28;20195;-86
2023/08/15 00:31:53;;;;;;;9.57;6.72;;;20.20;99.90;;;;;;5038738;28;20736;-86
2023/08/15 00:34:18;;;;;;;7.70;6.90;;;20.20;99.90;;;;;;5055417;28;20599;-86
2023/08/15 00:36:44;;;;;;;9.52;6.80;;;20.10;99.90;;;;;;5073702;28;20191;-86
2023/08/15 00:39:09;;;;;;;12.35;8.18;;;20.10;99.90;;;;;;5073406;28;20180;-86
2023/08/15 00:41:36;;;;;;;8.30;6.97;;;20.10;99.90;;;;;;5038944;28;20183;-86
2023/08/15 00:44:02;;;;;;;10.43;6.63;;;20.10;99.90;;;;;;5072945;28;20180;-87
2023/08/15 00:46:28;;;;;;;10.98;7.28;;;20.10;99.90;;;;;;5073201;28;20556;-86
2023/08/15 00:48:55;;;;;;;10.50;7.13;;;20.00;99.90;;;;;;5073335;28;20271;-86
2023/08/15 00:51:21;;;;;;;10.57;7.05;;;20.00;99.90;;;;;;5073203;28;20217;-86
2023/08/15 00:53:47;;;;;;;15.23;7.60;;;20.00;99.90;;;;;;5072903;28;20262;-86
2023/08/15 00:56:14;;;;;;;11.15;7.10;;;20.00;99.90;;;;;;5055565;28;20255;-86
2023/08/15 00:58:41;;;;;;;11.07;7.50;;;19.90;99.90;;;;;;5076560;28;20175;-86
2023/08/15 01:01:14;;;;;;;9.82;7.05;;;19.90;99.90;;;;;;5076981;28;20190;-86
2023/08/15 01:03:41;;;;;;;17.15;9.27;;;19.90;99.90;;;;;;5077458;28;20612;-86
2023/08/15 01:06:06;;;;;;;14.77;8.40;;;19.90;99.90;;;;;;5059290;28;20175;-86
2023/08/15 01:08:32;;;;;;;11.77;7.70;;;19.90;99.90;;;;;;5059369;28;20537;-86
2023/08/15 01:10:59;;;;;;;12.68;8.90;;;19.90;99.90;;;;;;5076705;28;20175;-86
2023/08/15 01:14:02;;;;;;;13.77;7.90;;;19.90;99.90;;;;;;5058730;28;20297;-86
2023/08/15 01:16:36;;;;;;;12.10;7.90;;;19.90;99.90;;;;;;5076319;28;20258;-86
2023/08/15 01:19:23;;;;;;;17.17;8.68;;;19.90;99.90;;;;;;5058691;28;20232;-86
2023/08/15 01:21:54;;;;;;;9.57;7.50;;;19.80;99.90;;;;;;5058958;28;20194;-86
2023/08/15 01:24:20;;;;;;;9.80;7.75;;;19.80;99.90;;;;;;5058694;28;20171;-86
2023/08/15 01:26:46;;;;;;;11.02;8.32;;;19.80;99.90;;;;;;5059091;28;20210;-86
2023/08/15 01:29:12;;;;;;;11.18;7.03;;;19.70;99.90;;;;;;5042042;28;20225;-86
2023/08/15 01:35:04;;;;;;;11.88;7.20;;;19.70;99.90;;;;;;5051294;28;20197;-86
2023/08/15 01:37:30;;;;;;;11.38;7.63;;;19.60;99.90;;;;;;5078244;28;20171;-86
2023/08/15 01:39:58;;;;;;;11.60;7.50;;;19.60;99.90;;;;;;5058902;28;20187;-87
2023/08/15 01:42:25;;;;;;;10.35;6.82;;;19.60;99.90;;;;;;5076384;28;20187;-87
2023/08/15 01:44:53;;;;;;;8.57;6.68;;;19.50;99.90;;;;;;5058220;28;20179;-86
2023/08/15 01:47:19;;;;;;;12.80;8.18;;;19.50;99.90;;;;;;5076023;28;20171;-87
2023/08/15 01:49:45;;;;;;;8.68;6.40;;;19.50;99.90;;;;;;5075961;28;20229;-85
2023/08/15 01:52:11;;;;;;;12.30;7.28;;;19.50;99.90;;;;;;5057985;28;20659;-85
2023/08/15 01:54:36;;;;;;;11.05;6.60;;;19.50;99.90;;;;;;5041539;28;20186;-85
2023/08/15 01:57:02;;;;;;;8.88;6.32;;;19.50;99.90;;;;;;5058002;28;20179;-85
2023/08/15 01:59:28;;;;;;;9.88;6.57;;;19.50;99.90;;;;;;5041183;28;20681;-85
2023/08/15 02:01:53;;;;;;;8.25;6.50;;;19.30;99.90;;;;;;5075671;28;20190;-85
2023/08/15 02:04:19;;;;;;;10.68;6.22;;;;;;;;;;5058356;28;20661;-85
2023/08/15 02:06:45;;;;;;;7.57;5.95;;;19.40;99.90;;;;;;5076666;28;20239;-85
2023/08/15 02:09:11;;;;;;;9.95;6.50;;;19.40;99.90;;;;;;5044427;28;20198;-85
2023/08/15 02:11:36;;;;;;;10.15;6.18;;;19.40;99.90;;;;;;5078299;28;20401;-87
2023/08/15 02:14:02;;;;;;;9.38;5.60;;;19.40;99.90;;;;;;5062022;28;20687;-85
2023/08/15 02:16:28;;;;;;;7.22;5.72;;;19.30;99.90;;;;;;5045861;28;20230;-85
2023/08/15 02:18:54;;;;;;;8.98;6.55;;;19.30;99.90;;;;;;5042013;28;20184;-85
2023/08/15 02:21:20;;;;;;;8.82;6.07;;;19.20;99.90;;;;;;5075534;28;20179;-85
2023/08/15 02:23:46;;;;;;;7.55;5.93;;;19.20;99.90;;;;;;5074963;28;20182;-86
2023/08/15 02:26:12;;;;;;;8.15;5.63;;;;;;;;;;5024298;28;20179;-85
2023/08/15 02:28:38;;;;;;;7.13;5.63;;;;;;;;;;5075763;28;20620;-85
2023/08/15 02:31:05;;;;;;;7.65;5.85;;;19.10;99.90;;;;;;5041131;28;20207;-87
2023/08/15 02:33:32;;;;;;;10.20;6.03;;;19.10;99.90;;;;;;5057509;28;20191;-85
2023/08/15 02:36:03;;;;;;;9.65;5.68;;;;;;;;;;5057285;28;20199;-85
2023/08/15 02:38:29;;;;;;;10.85;6.32;;;18.90;99.90;;;;;;5057395;28;20265;-85
2023/08/15 02:40:54;;;;;;;9.15;6.32;;;19.00;99.90;;;;;;5057458;28;20275;-85
2023/08/15 02:43:20;;;;;;;7.90;5.57;;;19.00;99.90;;;;;;5023992;28;20605;-86
2023/08/15 02:45:45;;;;;;;8.77;6.13;;;19.00;99.90;;;;;;5074830;28;20179;-85
2023/08/15 02:48:11;;;;;;;7.57;5.70;;;;;;;;;;5057023;28;20180;-85
2023/08/15 02:50:37;;;;;;;8.25;5.90;;;18.90;99.90;;;;;;5056936;28;20206;-85
2023/08/15 02:53:03;;;;;;;9.48;6.20;;;18.90;99.90;;;;;;5074824;28;20245;-85
2023/08/15 02:55:29;;;;;;;7.90;6.50;;;18.90;99.90;;;;;;5023745;28;20237;-85
2023/08/15 02:57:54;;;;;;;8.20;5.55;;;18.70;99.90;;;;;;5056577;28;20182;-84
2023/08/15 03:00:20;;;;;;;7.72;5.95;;;;;;;;;;5074473;28;20695;-86
2023/08/15 03:02:46;;;;;;;10.93;5.80;;;18.80;99.90;;;;;;5056875;28;20644;-86
2023/08/15 03:05:12;;;;;;;8.25;5.80;;;18.80;99.90;;;;;;5040104;28;20211;-85
2023/08/15 03:07:38;;;;;;;9.48;6.00;;;18.80;99.90;;;;;;5056740;28;20179;-85
2023/08/15 03:10:03;;;;;;;7.78;5.95;;;18.70;99.90;;;;;;5074180;28;20262;-85
2023/08/15 03:12:29;;;;;;;10.60;5.90;;;18.70;99.90;;;;;;5074533;28;20235;-85
2023/08/15 03:14:57;;;;;;;8.10;6.05;;;18.60;99.90;;;;;;5056652;28;20187;-84
2023/08/15 03:17:23;;;;;;;8.98;5.82;;;18.10;99.90;;;;;;5056170;28;20234;-85
2023/08/15 03:19:48;;;;;;;7.15;6.15;;;18.60;99.90;;;;;;5073376;28;20187;-85
2023/08/15 03:22:14;;;;;;;11.00;6.22;;;18.70;99.90;;;;;;5074087;28;20194;-87
2023/08/15 03:24:40;;;;;;;8.77;6.00;;;19.00;99.90;;;;;;5056652;28;20258;-84
2023/08/15 03:27:06;;;;;;;8.55;6.65;;;18.60;99.90;;;;;;5074226;28;20210;-84
2023/08/15 03:29:32;;;;;;;10.18;5.70;;;;;;;;;;5052711;28;20175;-84
2023/08/15 03:31:58;;;;;;;8.88;6.35;;;18.60;99.90;;;;;;5082944;28;20199;-86
2023/08/15 03:34:24;;;;;;;8.20;5.93;;;18.40;99.90;;;;;;5050707;28;20186;-85
2023/08/15 03:36:50;;;;;;;10.25;6.38;;;;;;;;;;5072516;28;20217;-86
2023/08/15 03:39:16;;;;;;;9.13;6.18;;;18.60;99.90;;;;;;5097090;28;20160;-93
2023/08/15 03:41:41;;;;;;;7.90;6.38;;;18.60;99.90;;;;;;5061117;28;20281;-85
2023/08/15 03:44:07;;;;;;;7.60;5.57;;;;;;;;;;5040122;28;20183;-85
2023/08/15 03:46:33;;;;;;;8.23;5.45;;;;;;;;;;5073698;28;20508;-86
2023/08/15 03:48:59;;;;;;;9.73;6.70;;;18.60;99.90;;;;;;5073833;28;20178;-85
2023/08/15 03:51:25;;;;;;;10.60;6.93;;;18.60;99.90;;;;;;5073277;28;20209;-85
2023/08/15 03:53:51;;;;;;;16.58;6.00;;;;;;;;;;5056061;28;20183;-85
2023/08/15 03:56:17;;;;;;;13.10;6.68;;;18.80;99.90;;;;;;5055836;28;20221;-85
2023/08/15 03:58:43;;;;;;;13.82;6.03;;;;;;;;;;5055568;28;20210;-85
2023/08/15 04:01:08;;;;;;;9.23;6.10;;;18.80;99.90;;;;;;5055611;28;20615;-85
2023/08/15 04:03:35;;;;;;;7.60;5.90;;;;;;;;;;5055857;28;20199;-85
2023/08/15 04:06:01;;;;;;;7.43;5.32;;;;;;;;;;5073650;28;20236;-85
2023/08/15 04:08:27;;;;;;;7.43;5.68;;;19.00;99.90;;;;;;5055461;28;20274;-85
2023/08/15 04:10:54;;;;;;;9.38;6.32;;;;;;;;;;5038902;28;20723;-85
2023/08/15 04:13:20;;;;;;;7.00;5.57;;;;;;;;;;5039111;28;20183;-85
2023/08/15 04:15:46;;;;;;;11.40;6.22;;;19.00;99.90;;;;;;5073066;28;20648;-86
2023/08/15 04:18:12;;;;;;;9.13;5.88;;;19.10;99.90;;;;;;5038840;28;20175;-86
2023/08/15 04:20:38;;;;;;;11.77;5.97;;;19.20;99.90;;;;;;5073336;28;20266;-86
2023/08/15 04:23:05;;;;;;;10.23;6.18;;;19.30;99.90;;;;;;5055461;28;20174;-85
2023/08/15 04:25:32;;;;;;;8.75;5.15;;;;;;;;;;5073629;28;20250;-85
2023/08/15 04:27:58;;;;;;;9.32;5.80;;;19.50;99.90;;;;;;5055358;28;20320;-86
2023/08/15 04:30:24;;;;;;;12.20;5.40;;;;;;;;;;5056250;28;20270;-89
2023/08/15 04:32:49;;;;;;;11.68;6.82;;;19.70;99.90;;;;;;5059366;28;20206;-85
2023/08/15 04:35:15;;;;;;;9.68;5.93;;;19.80;99.90;;;;;;5043200;28;20191;-85
2023/08/15 04:37:41;;;;;;;7.45;5.30;;;;;;;;;;5077444;28;20178;-85
2023/08/15 04:40:11;;;;;;;6.93;5.75;;;19.90;99.90;;;;;;5059143;28;20175;-85
2023/08/15 04:42:37;;;;;;;8.20;5.20;;;20.00;99.90;;;;;;5058932;28;20559;-85
2023/08/15 04:45:03;;;;;;;17.45;5.75;;;20.10;99.90;;;;;;5042514;28;20275;-85
2023/08/15 04:47:28;;;;;;;7.40;5.95;;;20.20;99.90;;;;;;5042592;28;20610;-87
2023/08/15 04:49:54;;;;;;;6.78;5.90;;;20.40;99.90;;;;;;5042202;28;20375;-83
2023/08/15 04:52:20;;;;;;;8.40;5.82;;;20.50;99.90;;;;;;5076607;28;20574;-84
2023/08/15 04:54:45;;;;;;;8.48;6.22;;;20.60;99.90;;;;;;5058747;28;20191;-84
2023/08/15 04:57:12;;;;;;;7.68;5.13;;;20.90;99.90;;;;;;5025267;28;20674;-84
2023/08/15 04:59:41;;;;;;;8.15;5.97;;;20.90;99.90;;;;;;5077592;28;20398;-83
2023/08/15 05:02:08;;;;;;;7.60;5.28;;;21.10;99.90;;;;;;5098666;28;20250;-83
2023/08/15 05:04:34;;;;;;;12.98;5.78;;;21.20;99.90;;;;;;5081710;28;20163;-86
2023/08/15 05:07:00;;;;;;;9.43;5.40;;;21.30;99.90;;;;;;5080744;28;20198;-83
2023/08/15 05:09:28;;;;;;;7.18;5.20;;;21.40;99.90;;;;;;5066575;28;20236;-84
2023/08/15 05:11:54;;;;;;;9.25;5.85;;;21.50;99.90;;;;;;5075600;28;20256;-84
2023/08/15 05:14:21;;;;;;;9.40;5.07;;;;;;;;;;5041715;28;20183;-84
2023/08/15 05:16:46;;;;;;;6.10;5.03;;;21.80;99.90;;;;;;5076338;28;20219;-85
2023/08/15 05:19:12;;;;;;;7.32;4.68;;;21.90;99.90;;;;;;5025201;28;20182;-84
2023/08/15 05:21:38;;;;;;;6.10;5.07;;;22.00;99.90;;;;;;5058170;28;20193;-85
2023/08/15 05:24:03;;;;;;;8.15;5.05;;;21.90;99.90;;;;;;5041585;28;20258;-84
2023/08/15 05:26:29;;;;;;;5.65;4.53;;;22.20;99.90;;;;;;5058091;28;20194;-84
2023/08/15 05:28:55;;;;;;;5.55;4.40;;;22.40;99.90;;;;;;5024902;28;20210;-84
2023/08/15 05:31:20;;;;;;;7.55;4.75;;;22.40;99.90;;;;;;5058016;28;20199;-85
2023/08/15 05:33:46;;;;;;;4.57;4.07;;;22.60;99.90;;;;;;5075776;28;20228;-86
2023/08/15 05:36:11;;;;;;;11.40;4.90;;;22.70;99.90;;;;;;5058402;28;20214;-87
2023/08/15 05:38:37;;;;;;;6.18;4.35;;;22.90;99.90;;;;;;5041505;28;20632;-86
2023/08/15 05:41:03;;;;;;;5.57;4.57;;;22.90;99.90;;;;;;5041732;28;20624;-85
2023/08/15 05:43:29;;;;;;;7.32;4.57;;;23.00;99.90;;;;;;5075040;28;20246;-85
2023/08/15 05:45:55;;;;;;;6.65;4.40;;;;;;;;;;5057881;28;20179;-85
2023/08/15 05:48:20;;;;;;;8.00;4.25;;;23.30;99.90;;;;;;5041598;28;20206;-86
2023/08/15 05:50:46;;;;;;;4.50;3.70;;;;;;;;;;5075824;28;20623;-86
2023/08/15 05:53:12;;;;;;;6.00;4.35;;;23.60;99.90;;;;;;5058072;28;20207;-85
2023/08/15 05:55:38;;;;;;;7.22;4.65;;;23.70;99.90;;;;;;5024468;28;20183;-86
2023/08/15 05:58:04;;;;;;;5.25;4.18;;;;;;;;;;5075755;28;20528;-85
2023/08/15 06:00:29;;;;;;;9.52;4.20;;;23.90;99.90;;;;;;5076182;28;20186;-91
2023/08/15 06:02:55;;;;;;;8.73;3.83;;;23.90;99.90;;;;;;5062679;28;20179;-94
2023/08/15 06:05:22;;;;;;;4.57;3.78;;;;;;;;;;5065018;28;20170;-91
2023/08/15 06:07:48;;;;;;;4.45;3.47;;;24.20;99.90;;;;;;5062777;28;20186;-92
2023/08/15 06:10:14;;;;;;;4.55;3.33;;;24.40;99.90;;;;;;5042883;28;20214;-85
2023/08/15 06:12:41;;;;;;;6.50;4.30;;;24.60;99.90;;;;;;5076085;28;20234;-85
2023/08/15 06:15:06;;;;;;;5.28;4.30;;;24.70;99.90;;;;;;5041820;28;20183;-86
2023/08/15 06:17:32;;;;;;;4.40;3.58;;;24.70;99.90;;;;;;5037467;28;20242;-88
2023/08/15 06:19:58;;;;;;;5.93;3.90;;;24.90;99.90;;;;;;5053603;28;20625;-87
2023/08/15 06:22:23;;;;;;;6.38;3.58;;;25.00;99.90;;;;;;5055096;28;20187;-86
2023/08/15 06:24:49;;;;;;;5.70;4.25;;;25.10;99.90;;;;;;5020598;28;20625;-86
2023/08/15 06:27:15;;;;;;;4.90;3.58;;;25.20;99.90;;;;;;5053147;28;20230;-86
2023/08/15 06:29:40;;;;;;;7.25;4.55;;;25.40;99.90;;;;;;5053062;28;20176;-86
2023/08/15 06:32:06;;;;;;;6.57;3.67;;;25.70;99.90;;;;;;5053806;28;20210;-86
2023/08/15 06:34:32;;;;;;;4.05;3.33;;;25.70;99.90;;;;;;5019682;28;20186;-86
2023/08/15 06:36:58;;;;;;;6.18;3.78;;;25.80;99.90;;;;;;5019543;28;20191;-86
2023/08/15 06:39:23;;;;;;;5.32;4.10;;;25.90;99.90;;;;;;5052680;28;20536;-86
2023/08/15 06:41:49;;;;;;;6.20;3.40;;;26.00;99.90;;;;;;5052416;28;20188;-87
2023/08/15 06:44:15;;;;;;;6.43;3.33;;;26.10;99.90;;;;;;5052889;28;20238;-87
2023/08/15 06:46:40;;;;;;;5.68;3.58;;;26.30;99.90;;;;;;5053130;28;20697;-86
2023/08/15 06:49:06;;;;;;;3.42;3.05;;;26.40;99.90;;;;;;5019818;28;20624;-87
2023/08/15 06:51:32;;;;;;;5.60;3.67;;;26.50;99.90;;;;;;5036199;28;20249;-88
2023/08/15 06:53:58;;;;;;;3.47;3.13;;;26.70;99.90;;;;;;5052086;28;20633;-87
2023/08/15 06:56:23;;;;;;;4.63;2.78;;;27.20;99.90;;;;;;5052492;28;20188;-88
2023/08/15 06:58:49;;;;;;;7.53;3.83;;;26.30;99.90;;;;;;5052652;28;20182;-92
2023/08/15 07:01:15;;;;;;;3.28;2.72;;;26.90;99.90;;;;;;5018782;28;20258;-87
2023/08/15 07:03:40;;;;;;;3.92;3.10;;;26.90;99.90;;;;;;5019234;28;20183;-91
2023/08/15 07:06:06;;;;;;;6.10;3.10;;;26.90;99.90;;;;;;5052189;28;20176;-87
2023/08/15 07:08:32;;;;;;;3.85;2.83;;;;;;;;;;5053078;28;20214;-87
2023/08/15 07:10:59;;;;;;;5.00;2.92;;;27.40;97.20;;;;;;5053138;28;20176;-86
2023/08/15 07:13:25;;;;;;;2.97;2.65;;;27.50;99.90;;;;;;5051996;28;20188;-85
2023/08/15 07:15:55;;;;;;;3.85;2.80;;;28.00;96.80;;;;;;5055689;28;20311;-87
2023/08/15 07:18:23;;;;;;;5.53;2.97;;;27.70;99.90;;;;;;5074030;28;20190;-86
2023/08/15 07:20:50;;;;;;;5.43;3.13;;;27.40;99.90;;;;;;5040253;28;20222;-86
2023/08/15 07:23:22;;;;;;;5.85;3.00;;;27.90;92.40;;;;;;5072962;28;20653;-87
2023/08/15 07:25:48;;;;;;;6.60;3.22;;;;;;;;;;5073563;28;20175;-85
2023/08/15 07:28:14;;;;;;;5.93;4.00;;;;;;;;;;5055831;28;20617;-86
2023/08/15 07:30:41;;;;;;;4.50;2.67;;;;;;;;;;5073120;28;20282;-86
2023/08/15 07:33:08;;;;;;;4.07;2.78;;;;;;;;;;5055196;28;20250;-85
2023/08/15 07:35:33;;;;;;;3.60;2.95;;;28.80;96.80;;;;;;5072830;28;20179;-87
2023/08/15 07:37:59;;;;;;;5.28;2.92;;;28.20;90.80;;;;;;5054121;28;20709;-85
2023/08/15 07:40:25;;;;;;;5.57;2.45;;;28.40;90.40;;;;;;5072836;28;20269;-85
2023/08/15 07:42:53;;;;;;;3.53;2.70;;;28.40;86.20;;;;;;5055790;28;20203;-85
2023/08/15 07:45:22;;;;;;;5.35;3.50;;;28.50;88.60;;;;;;5040217;28;20187;-85
2023/08/15 07:47:51;;;;;;;3.83;2.35;;;28.50;93.50;;;;;;5056059;28;20636;-84
2023/08/15 07:50:26;;;;;;;5.13;3.03;;;28.70;84.30;;;;;;5045343;28;20171;-86
2023/08/15 07:52:52;;;;;;;5.45;2.90;;;28.70;85.40;;;;;;5096327;28;20190;-91
2023/08/15 07:55:18;;;;;;;3.25;2.88;;;;;;;;;;5092872;28;20222;-87
2023/08/15 07:57:45;;;;;;;2.83;2.60;;;29.50;95.40;;;;;;5055472;28;20542;-85
2023/08/15 08:00:12;;;;;;;4.53;3.20;;;28.90;84.10;;;;;;5071567;28;20175;-87
2023/08/15 08:02:39;;;;;;;3.83;3.38;;;29.00;83.50;;;;;;5072867;28;20235;-89
2023/08/15 08:05:07;;;;;;;4.05;3.08;;;29.10;82.80;;;;;;5080123;28;20171;-87
2023/08/15 08:07:34;;;;;;;3.67;2.65;;;29.10;80.80;;;;;;5081733;28;20447;-87
2023/08/15 08:10:00;;;;;;;4.45;2.75;;;29.30;79.70;;;;;;5051399;28;20183;-88
2023/08/15 08:12:27;;;;;;;3.33;2.42;;;29.20;79.40;;;;;;5042589;28;20210;-86
2023/08/15 08:14:52;;;;;;;4.68;2.58;;;29.30;76.90;;;;;;5054713;28;20202;-86
2023/08/15 08:17:18;;;;;;;3.20;2.38;;;29.40;77.40;;;;;;5037762;28;20830;-87
2023/08/15 08:19:44;;;;;;;3.97;2.75;;;29.40;76.60;;;;;;5038215;28;20647;-85
2023/08/15 08:22:09;;;;;;;3.83;2.60;;;29.60;74.40;;;;;;5021753;28;20183;-85
2023/08/15 08:24:35;;;;;;;9.57;2.85;;;29.70;74.30;;;;;;5073005;28;20183;-86
2023/08/15 08:27:01;;;;;;;5.22;2.88;;;29.80;71.90;;;;;;5055357;28;20187;-89
2023/08/15 08:29:26;;;;;;;7.20;2.80;;;29.80;70.70;;;;;;5073631;28;20221;-88
2023/08/15 08:31:52;;;;;;;3.60;2.30;;;29.90;70.20;;;;;;5038132;28;20294;-87
2023/08/15 08:34:17;;;;;;;3.17;2.42;;;30.00;67.40;;;;;;5055880;28;20632;-87
2023/08/15 08:36:43;;;;;;;4.20;2.72;;;30.00;69.60;;;;;;5038869;28;20632;-89
2023/08/15 08:39:10;;;;;;;3.40;2.55;;;30.10;66.90;;;;;;5053868;28;20179;-88
2023/08/15 08:41:36;;;;;;;3.20;2.47;;;30.10;65.30;;;;;;5055116;28;20187;-87
2023/08/15 08:44:02;;;;;;;5.85;2.78;;;30.10;66.30;;;;;;5038811;28;20179;-86
2023/08/15 08:46:29;;;;;;;3.53;2.30;;;30.30;63.80;;;;;;5074168;28;20175;-87
2023/08/15 08:48:58;;;;;;;3.88;2.35;;;30.30;64.40;;;;;;5056248;28;20531;-88
2023/08/15 08:51:25;;;;;;;4.30;2.42;;;30.50;63.40;;;;;;5057684;28;20203;-88
2023/08/15 08:53:51;;;;;;;3.10;2.20;;;30.50;64.00;;;;;;5075329;28;20175;-88
2023/08/15 08:56:19;;;;;;;4.00;2.70;;;30.50;61.70;;;;;;5077316;28;20175;-88
2023/08/15 08:58:48;;;;;;;2.63;2.10;;;30.60;60.40;;;;;;5077806;28;20156;-88
2023/08/15 09:01:16;;;;;;;3.55;2.40;;;30.70;61.90;;;;;;5075816;28;20171;-86
2023/08/15 09:03:42;;;;;;;5.05;2.20;;;;;;;;;;5061189;28;20213;-87
2023/08/15 09:06:08;;;;;;;5.30;2.13;;;;;;;;;;5076580;28;20183;-87
2023/08/15 09:08:34;;;;;;;5.00;2.00;;;30.90;57.20;;;;;;5078909;28;20250;-87
2023/08/15 09:11:00;;;;;;;4.00;2.00;;;30.80;56.90;;;;;;5056671;28;20176;-87
2023/08/15 09:13:26;;;;;;;6.00;2.40;;;30.90;57.20;;;;;;5056000;28;20550;-86
2023/08/15 09:15:59;;;;;;;3.50;2.38;;;;;;;;;;5054029;28;20231;-90
2023/08/15 09:18:33;;;;;;;3.65;2.30;;;31.80;66.70;;;;;;5057392;28;20270;-89
2023/08/15 09:20:59;;;;;;;8.20;2.78;;;;;;;;;;5080015;28;20172;-87
2023/08/15 09:23:24;;;;;;;6.93;2.38;;;31.00;66.70;;;;;;5061161;28;20175;-88
2023/08/15 09:25:55;;;;;;;8.77;2.28;;;31.40;53.40;;;;;;5067291;28;20180;-86
2023/08/15 09:28:21;;;;;;;4.45;2.40;;;;;;;;;;5058975;28;20250;-87
2023/08/15 09:30:53;;;;;;;3.90;2.35;;;31.50;53.00;;;;;;5058226;28;20211;-88
2023/08/15 09:33:20;;;;;;;2.47;2.10;;;31.60;54.50;;;;;;5076995;28;20290;-89
2023/08/15 09:35:46;;;;;;;6.00;2.63;;;31.80;54.00;;;;;;5059232;28;20187;-87
2023/08/15 09:38:12;;;;;;;4.10;2.47;;;31.70;51.50;;;;;;5074921;28;20176;-86
2023/08/15 09:40:37;;;;;;;4.32;2.20;;;31.70;52.90;;;;;;5057513;28;20184;-88
2023/08/15 09:43:04;;;;;;;10.45;3.63;;;31.80;52.50;;;;;;5041866;28;20186;-87
2023/08/15 09:45:30;;;;;;;2.70;2.17;;;31.90;53.40;;;;;;5075525;28;20295;-88
2023/08/15 09:47:55;;;;;;;4.68;2.35;;;32.00;60.50;;;;;;5056993;28;20672;-89
2023/08/15 09:50:22;;;;;;;7.50;2.10;;;32.20;51.60;;;;;;5074653;28;20229;-88
2023/08/15 09:52:48;;;;;;;4.45;2.42;;;32.40;51.40;;;;;;5075072;28;20203;-88
2023/08/15 09:55:15;;;;;;;9.63;2.72;;;32.50;50.20;;;;;;5057751;28;20298;-89
2023/08/15 09:57:45;;;;;;;4.70;2.78;;;32.50;49.70;;;;;;5057041;28;20240;-87
2023/08/15 10:00:12;;;;;;;4.82;2.63;;;32.60;50.20;;;;;;5074001;28;20558;-89
2023/08/15 10:02:43;;;;;;;4.93;2.35;;;32.90;59.20;;;;;;5074346;28;20658;-88
2023/08/15 10:05:11;;;;;;;2.58;2.17;;;32.80;49.20;;;;;;5056664;28;20198;-87
2023/08/15 10:07:38;;;;;;;4.00;2.20;;;32.40;56.00;;;;;;5073800;28;20673;-87
2023/08/15 10:10:05;;;;;;;3.53;2.35;;;32.80;46.70;;;;;;5078474;28;20214;-87
2023/08/15 10:12:36;;;;;;;5.43;3.15;;;32.70;46.20;;;;;;5056113;28;20232;-88
2023/08/15 10:15:03;;;;;;;6.05;2.25;;;32.60;46.50;;;;;;5073762;28;20172;-88
2023/08/15 10:17:29;;;;;;;3.30;2.05;;;32.50;48.30;;;;;;5022976;28;20236;-88
2023/08/15 10:20:00;;;;;;;4.95;2.20;;;32.70;49.00;;;;;;5073776;28;20179;-88
2023/08/15 10:22:26;;;;;;;3.70;2.05;;;32.90;47.70;;;;;;5073636;28;20175;-88
2023/08/15 10:24:54;;;;;;;4.45;2.17;;;33.10;48.40;;;;;;5074158;28;20167;-88
2023/08/15 10:27:20;;;;;;;3.08;1.90;;;33.30;50.10;;;;;;5057245;28;20199;-88
2023/08/15 10:29:58;;;;;;;3.67;2.25;;;33.30;46.70;;;;;;5055552;28;20171;-87
2023/08/15 10:32:25;;;;;;;3.58;2.35;;;33.30;48.50;;;;;;5055999;28;20230;-86
2023/08/15 10:34:57;;;;;;;9.60;2.00;;;33.30;46.60;;;;;;5074254;28;20198;-87
2023/08/15 10:37:31;;;;;;;3.53;2.60;;;33.30;47.00;;;;;;5073906;28;20183;-89
2023/08/15 10:40:10;;;;;;;2.70;2.22;;;33.50;47.10;;;;;;5039748;28;20233;-88
2023/08/15 10:42:57;;;;;;;4.88;2.30;;;33.70;46.00;;;;;;5056029;28;20186;-87
2023/08/15 10:45:24;;;;;;;7.25;2.50;;;33.90;45.80;;;;;;5074775;28;20575;-87
2023/08/15 10:47:49;;;;;;;6.38;2.15;;;34.00;47.00;;;;;;5042067;28;20179;-88
2023/08/15 10:50:16;;;;;;;4.30;2.22;;;34.10;44.90;;;;;;5057621;28;20187;-88
2023/08/15 10:52:42;;;;;;;3.45;1.85;;;34.20;44.40;;;;;;5075557;28;20203;-85
2023/08/15 10:55:08;;;;;;;3.53;2.35;;;34.10;41.90;;;;;;5076467;28;20202;-87
2023/08/15 10:57:34;;;;;;;3.03;2.28;;;34.00;43.10;;;;;;5077401;28;20176;-86
2023/08/15 11:00:01;;;;;;;3.65;2.50;;;34.10;43.40;;;;;;5026063;28;20187;-88
2023/08/15 11:02:26;;;;;;;3.08;2.00;;;34.20;43.40;;;;;;5059075;28;20266;-88
2023/08/15 11:04:53;;;;;;;3.97;2.08;;;34.30;43.90;;;;;;5058099;28;20232;-86
2023/08/15 11:07:26;;;;;;;4.18;2.30;;;34.30;41.80;;;;;;5042926;28;20190;-90
2023/08/15 11:09:51;;;;;;;4.05;1.85;;;34.30;44.00;;;;;;5057677;28;20179;-86
2023/08/15 11:12:18;;;;;;;2.30;1.80;;;34.40;42.50;;;;;;5057051;28;20206;-85
2023/08/15 11:14:49;;;;;;;6.90;2.33;;;34.40;41.40;;;;;;5057899;28;20191;-83
2023/08/15 11:17:15;;;;;;;4.13;2.10;;;34.40;43.10;;;;;;5075668;28;20310;-85
2023/08/15 11:19:41;;;;;;;3.13;2.30;;;34.60;41.30;;;;;;5057092;28;20203;-84
2023/08/15 11:22:07;;;;;;;5.00;2.20;;;34.70;41.00;;;;;;5041201;28;20183;-87
2023/08/15 11:24:33;;;;;;;2.22;1.73;;;34.80;40.80;;;;;;5058298;28;20628;-87
2023/08/15 11:26:59;;;;;;;3.00;1.90;;;34.60;41.80;;;;;;5058759;28;20650;-87
2023/08/15 11:29:25;;;;;;;3.83;1.95;;;34.30;40.00;;;;;;5041539;28;20179;-87
2023/08/15 11:31:54;;;;;;;5.75;2.10;;;34.30;42.40;;;;;;5057832;28;20232;-86
2023/08/15 11:34:22;;;;;;;2.60;1.90;;;34.40;39.90;;;;;;5057154;28;20224;-87
2023/08/15 11:36:48;;;;;;;3.33;2.40;;;34.50;39.90;;;;;;5075392;28;20225;-87
2023/08/15 11:39:14;;;;;;;2.97;1.85;;;34.50;40.40;;;;;;5076770;28;20174;-87
2023/08/15 11:41:40;;;;;;;2.13;1.90;;;34.60;42.10;;;;;;5057161;28;20179;-87
2023/08/15 11:44:06;;;;;;;2.17;1.88;;;34.80;41.10;;;;;;5039817;28;20189;-87
2023/08/15 11:46:38;;;;;;;3.33;2.20;;;34.70;40.80;;;;;;5027726;28;20183;-86
2023/08/15 11:49:04;;;;;;;4.40;2.13;;;34.80;41.20;;;;;;5043037;28;20656;-88
2023/08/15 11:51:29;;;;;;;2.97;1.90;;;34.80;40.10;;;;;;5059499;28;20256;-88
2023/08/15 11:53:56;;;;;;;3.83;2.13;;;34.70;39.90;;;;;;5076672;28;20179;-90
2023/08/15 11:56:22;;;;;;;2.00;1.80;;;34.80;40.40;;;;;;5057510;28;20175;-88
2023/08/15 11:58:48;;;;;;;4.85;1.92;;;34.80;41.10;;;;;;5041837;28;20186;-86
2023/08/15 12:01:14;;;;;;;3.38;1.92;;;34.80;40.50;;;;;;5074334;28;20559;-85
2023/08/15 12:03:40;;;;;;;3.97;1.92;;;34.80;38.60;;;;;;5057332;28;20171;-85
2023/08/15 12:06:08;;;;;;;4.13;2.03;;;34.70;38.70;;;;;;5058580;28;20180;-87
2023/08/15 12:08:33;;;;;;;3.15;1.77;;;34.60;37.90;;;;;;5041632;28;20179;-85
2023/08/15 12:11:10;;;;;;;3.60;2.22;;;34.50;39.10;;;;;;5076634;28;20198;-85
2023/08/15 12:13:38;;;;;;;5.70;1.75;;;34.60;40.30;;;;;;5076309;28;20171;-85
2023/08/15 12:16:05;;;;;;;4.78;2.60;;;34.80;41.50;;;;;;5030733;28;20294;-86
2023/08/15 12:18:31;;;;;;;4.85;1.90;;;34.90;41.20;;;;;;5082123;28;20170;-86
2023/08/15 12:20:58;;;;;;;5.22;2.13;;;35.10;40.80;;;;;;5066394;28;20615;-88
2023/08/15 12:23:24;;;;;;;1.90;1.70;;;35.00;38.60;;;;;;5061361;28;20183;-90
2023/08/15 12:25:50;;;;;;;4.03;2.00;;;35.00;38.40;;;;;;5065208;28;20697;-86
2023/08/15 12:28:18;;;;;;;2.58;2.00;;;34.90;39.20;;;;;;5061381;28;20186;-85
2023/08/15 12:30:46;;;;;;;3.80;2.45;;;35.00;39.00;;;;;;5058474;28;20332;-86
2023/08/15 12:33:12;;;;;;;3.85;2.25;;;35.20;39.30;;;;;;5058876;28;20206;-86
2023/08/15 12:35:38;;;;;;;4.15;2.38;;;35.40;40.40;;;;;;5043725;28;20179;-88
2023/08/15 12:38:04;;;;;;;2.88;2.25;;;35.60;39.50;;;;;;5046025;28;20205;-87
2023/08/15 12:40:29;;;;;;;4.57;2.53;;;35.50;39.50;;;;;;5062013;28;20648;-89
2023/08/15 12:42:55;;;;;;;8.15;2.67;;;35.50;39.80;;;;;;5071777;28;20183;-87
2023/08/15 12:45:21;;;;;;;4.90;2.42;;;35.40;39.50;;;;;;5093868;28;20236;-85
2023/08/15 12:47:47;;;;;;;5.93;2.33;;;35.50;39.90;;;;;;5060069;28;20513;-87
2023/08/15 12:50:13;;;;;;;3.45;2.10;;;35.30;38.50;;;;;;5062529;28;20228;-88
2023/08/15 12:52:39;;;;;;;3.97;2.17;;;35.20;39.90;;;;;;5048192;28;20207;-88
2023/08/15 12:55:05;;;;;;;5.20;2.08;;;35.40;40.50;;;;;;5078591;28;20220;-87